LIMJLIMA

Guest
Details From LIMJ - Genova Sestri
To LIMA - Torino Aeritalia
Flight Number -
Tags generated
Created
Modified
Stats Distance 67 nm / 123 km
Max Altitude 3,100 ft / 945 m
Waypoints 3
Social Downloads 1
Likes 0
Share VATSIM

Download

Looking for another format? Having issues loading an existing format? Contact us
Advertisement - Login to hide

Notes

Basic altitude profile: - Ascent Rate: 2500ft/min - Ascent Speed: 250kts - Cruise Altitude: 35000ft - Cruise Speed: 420kts - Descent Rate: 1500ft/min - Descent Speed: 250kts

Route

LIMJ TOP LIMA

ID Type Via Altitude Latitude Longitude Leg Dist Tot Dist Heading (true) Name
O LIMJ APT - 0 ft / 0 m 44.41196˚ 8.84187˚ - 0 nm - Genova Sestri
TOP VOR - 3,100 ft / 945 m 44.92525˚ 7.86166˚ 51 nm 51 nm 307° / 306° TORINO VOR-DME
O LIMA APT - 0 ft / 0 m 45.08564˚ 7.60422˚ 14 nm 66 nm 311° / 311° Torino Aeritalia

Altitude Profile

Advertisement - Login to hide

LIMJ

Details ICAO LIMJ (GOA)
Name Genova Sestri
Region Italy
Timezone Unknown (UTC+0.0)
Stats Elevation 13 ft / 4 m (AMSL)
Location 44.411957° 8.841866°
Runways 1
Magnetic Variation 2.438° E

METAR

LIMJ 270950Z 20003KT 150V270 CAVOK 25/20 Q1018

Decode

TAF

TAF LIMJ 270500Z 2706/2806 03007KT 9999 SCT040 TEMPO 2721/2801 SHRA

Decode

Departure Runways

ID Width Length Bearing (true) Bearing (mag) Surface Threshold Offset Overrun Length
10 148 ft / 45 m 9,574 ft / 2,918 m 105.39° 102.95° Asphalt 0 ft / 0 m 0 ft / 0 m
28 148 ft / 45 m 9,574 ft / 2,918 m 285.41° 282.97° Asphalt 538 ft / 164 m 0 ft / 0 m

LIMA

Details ICAO LIMA
Name Torino Aeritalia
Region Italy
Timezone Europe/Rome (UTC+2.0)
Stats Elevation 943 ft / 287 m (AMSL)
Location 45.085639° 7.604223°
Runways 2
Magnetic Variation 2.163° E

METAR

LIMA 270950Z 00000KT 9999 SCT030 25/14 Q1020

Decode

TAF

Not found

Destination Runways

ID Width Length Bearing (true) Bearing (mag) Surface Threshold Offset Overrun Length
10L 98 ft / 30 m 3,515 ft / 1,071 m 101.44° 99.28° Asphalt 0 ft / 0 m 0 ft / 0 m
10R 131 ft / 40 m 2,452 ft / 747 m 101.56° 99.40° Grass 0 ft / 0 m 0 ft / 0 m
28L 131 ft / 40 m 2,452 ft / 747 m 281.57° 279.41° Grass 0 ft / 0 m 0 ft / 0 m
28R 98 ft / 30 m 3,515 ft / 1,071 m 281.45° 279.29° Asphalt 820 ft / 250 m 0 ft / 0 m

Popular Alternatives